Pagrindinis puslapis
METAR-TAF:

METAR-TAF

Oro uostai :

Kuveitas, Kuveitas

platuma: 29-13N, ilguma: 047-59E, Aukštis: 55 m

Dabartinis oras

Ataskaita buvo paskelbta 35 minutes, ne 01:00 UTC
Vėjas 5 kt iš Šiaurės/Šiaurės Rytų
Temperatūra 36°C
Drėgmė 22%
Slėgis 997 hPa
Matomumas 10 km arba daugiau
nėra debesų žemiau 1500 m ir nėra kamuolinių lietaus debesų

METAR: OKBK 060100Z 02005KT CAVOK 36/11 Q0997 NOSIG

Laikas: 04:35 (01:35 UTC)

Prognozė

Ataskaita buvo paskelbta 2 valandos ir 50 minutes, ne 22:45 UTC
Prognozė galioja nuo 06 metu 00 UTC su 07 metu 06 UTC
Vėjas 12 kt iš Šiaurės
Matomumas: 7000 m

TAF: OKBK 052245Z 0600/0706 35012KT 7000 NSC

Orai ataskaitas ir orų prognozės (METAR, TAF).

turimą stotys yra geltonos ir raudonos taškus žemėlapyje.

Perkelti pele per norėdami pamatyti stoties vardą.

Tada spustelėkite, norėdami matyti oro stebėjimo ir prognozės.

Norėdami pakeisti žemėlapį: spustelėkite ant žalios mygtukų su juodo kryžiaus žemyn,; žalią mygtuką su brūkšneliu, jei norite nutolinti; arba žalių rodyklių gretimoms žemėlapius.


METAR-TAF: